createdAt,value
2023-05-01T00:00:52.505Z,41.40
2023-05-01T00:03:19.736Z,41.39
2023-05-01T00:05:47.526Z,41.49
2023-05-01T00:08:14.698Z,41.24
2023-05-01T00:10:41.812Z,41.25
2023-05-01T00:13:10.046Z,41.30
2023-05-01T00:15:37.366Z,41.42
2023-05-01T00:18:04.516Z,41.33
2023-05-01T00:20:31.657Z,41.51
2023-05-01T00:22:58.843Z,41.52
2023-05-01T00:25:25.963Z,41.43
2023-05-01T00:27:53.080Z,41.15
2023-05-01T00:30:20.335Z,41.55
2023-05-01T00:32:47.535Z,41.49
2023-05-01T00:35:14.970Z,41.39
2023-05-01T00:37:42.192Z,41.35
2023-05-01T00:40:09.668Z,41.58
2023-05-01T00:42:39.186Z,41.50
2023-05-01T00:45:07.330Z,41.58
2023-05-01T00:47:37.816Z,41.62
2023-05-01T00:50:05.826Z,41.57
2023-05-01T00:52:32.953Z,41.49
2023-05-01T00:55:00.079Z,41.60
2023-05-01T00:57:27.252Z,41.66
2023-05-01T00:59:54.654Z,41.63
2023-05-01T01:02:22.448Z,41.81
2023-05-01T01:04:49.685Z,41.69
2023-05-01T01:07:27.182Z,41.77
2023-05-01T01:10:13.387Z,41.61
2023-05-01T01:12:43.523Z,41.70
2023-05-01T01:15:10.670Z,41.74
2023-05-01T01:17:38.002Z,41.89
2023-05-01T01:20:18.695Z,41.76
2023-05-01T01:22:47.650Z,41.83
2023-05-01T01:25:33.652Z,41.81
2023-05-01T01:28:06.510Z,41.76
2023-05-01T01:30:42.670Z,41.80
2023-05-01T01:33:17.238Z,41.80
2023-05-01T01:35:47.185Z,41.79
2023-05-01T01:38:17.864Z,41.82
2023-05-01T01:40:47.426Z,41.84
2023-05-01T01:43:14.587Z,41.87
2023-05-01T01:45:42.265Z,41.84
2023-05-01T01:48:10.067Z,41.60
2023-05-01T01:50:37.311Z,41.87
2023-05-01T01:53:04.619Z,41.94
2023-05-01T01:55:31.804Z,41.84
2023-05-01T01:57:59.044Z,41.96
2023-05-01T02:00:26.139Z,41.95
2023-05-01T02:02:53.375Z,41.99
2023-05-01T02:05:20.560Z,41.95
2023-05-01T02:07:48.691Z,41.88
2023-05-01T02:10:16.321Z,41.95
2023-05-01T02:12:44.756Z,42.00
2023-05-01T02:15:11.873Z,41.95
2023-05-01T02:17:39.009Z,41.96
2023-05-01T02:20:06.348Z,42.14
2023-05-01T02:22:33.688Z,41.83
2023-05-01T02:25:01.052Z,41.95
2023-05-01T02:27:32.334Z,42.05
2023-05-01T02:29:59.501Z,42.08
2023-05-01T02:32:26.696Z,41.96
2023-05-01T02:34:54.064Z,42.19
2023-05-01T02:37:21.199Z,42.12
2023-05-01T02:39:48.746Z,42.08
2023-05-01T02:42:16.093Z,42.04
2023-05-01T02:44:45.295Z,42.03
2023-05-01T02:47:12.740Z,42.27
2023-05-01T02:49:39.867Z,41.99
2023-05-01T02:52:07.026Z,42.23
2023-05-01T02:54:34.208Z,42.04
2023-05-01T02:57:03.473Z,42.01
2023-05-01T02:59:30.590Z,42.32
2023-05-01T03:01:58.188Z,42.15
2023-05-01T03:04:25.749Z,42.14
2023-05-01T03:06:53.048Z,42.16
2023-05-01T03:09:20.536Z,42.21
2023-05-01T03:11:47.749Z,42.36
2023-05-01T03:14:14.916Z,42.22
2023-05-01T03:16:42.167Z,42.19
2023-05-01T03:19:09.316Z,42.34
2023-05-01T03:21:37.079Z,42.16
2023-05-01T03:24:04.211Z,42.09
2023-05-01T03:26:32.979Z,42.30
2023-05-01T03:29:00.217Z,42.31
2023-05-01T03:31:27.342Z,42.27
2023-05-01T03:33:54.548Z,42.17
2023-05-01T03:36:22.455Z,42.31
2023-05-01T03:38:49.600Z,42.27
2023-05-01T03:41:17.046Z,42.21
2023-05-01T03:43:44.170Z,42.28
2023-05-01T03:46:11.466Z,42.42
2023-05-01T03:48:38.644Z,42.53
2023-05-01T03:51:08.873Z,42.22
2023-05-01T03:53:37.023Z,42.29
2023-05-01T03:56:04.704Z,42.33
2023-05-01T03:58:32.185Z,42.41
2023-05-01T04:01:00.859Z,42.31
2023-05-01T04:03:28.720Z,42.52
2023-05-01T04:05:56.254Z,42.31
2023-05-01T04:08:23.603Z,42.35
2023-05-01T04:10:51.051Z,42.36
2023-05-01T04:13:18.168Z,42.37
2023-05-01T04:15:46.463Z,42.56
2023-05-01T04:18:14.213Z,42.48
2023-05-01T04:20:41.481Z,42.60
2023-05-01T04:23:09.549Z,42.36
2023-05-01T04:25:36.950Z,42.39
2023-05-01T04:28:04.569Z,42.38
2023-05-01T04:30:31.760Z,42.42
2023-05-01T04:32:59.053Z,42.36
2023-05-01T04:35:26.829Z,42.41
2023-05-01T04:37:53.985Z,42.39
2023-05-01T04:40:21.106Z,42.43
2023-05-01T04:42:48.320Z,42.35
2023-05-01T04:45:16.160Z,42.35
2023-05-01T04:47:43.898Z,42.42
2023-05-01T04:50:11.624Z,42.38
2023-05-01T04:52:38.780Z,42.26
2023-05-01T04:55:06.116Z,42.17
2023-05-01T04:57:33.230Z,42.29
2023-05-01T05:00:00.362Z,42.31
2023-05-01T05:02:27.557Z,42.25
2023-05-01T05:04:54.802Z,42.66
2023-05-01T05:07:22.304Z,42.37
2023-05-01T05:09:49.409Z,42.35
2023-05-01T05:12:16.527Z,42.30
2023-05-01T05:14:43.861Z,42.32
2023-05-01T05:17:11.108Z,42.24
2023-05-01T05:19:38.307Z,42.32
2023-05-01T05:22:05.597Z,42.20
2023-05-01T05:24:32.805Z,42.27
2023-05-01T05:26:59.942Z,42.58
2023-05-01T05:29:27.160Z,42.40
2023-05-01T05:31:54.420Z,42.38
2023-05-01T05:34:21.707Z,42.56
2023-05-01T05:36:48.873Z,42.81
2023-05-01T05:39:15.993Z,42.57
2023-05-01T05:41:43.182Z,42.62
2023-05-01T05:44:10.301Z,42.69
2023-05-01T05:46:37.603Z,42.62
2023-05-01T05:49:04.774Z,42.58
2023-05-01T05:51:32.061Z,42.53
2023-05-01T05:53:59.229Z,42.52
2023-05-01T05:56:26.412Z,42.25
2023-05-01T05:58:53.615Z,42.26
2023-05-01T06:01:20.769Z,42.16
2023-05-01T06:03:48.001Z,41.96
2023-05-01T06:06:15.327Z,42.22
2023-05-01T06:08:42.593Z,42.26
2023-05-01T06:11:09.704Z,42.12
2023-05-01T06:13:36.885Z,42.19
2023-05-01T06:16:04.434Z,42.19
2023-05-01T06:18:31.640Z,42.46
2023-05-01T06:20:59.913Z,42.46
2023-05-01T06:23:27.036Z,42.45
2023-05-01T06:25:54.164Z,42.20
2023-05-01T06:28:21.480Z,42.45
2023-05-01T06:30:48.643Z,42.34
2023-05-01T06:33:15.951Z,42.26
2023-05-01T06:35:43.171Z,41.73
2023-05-01T06:38:10.430Z,42.00
2023-05-01T06:40:37.626Z,41.29
2023-05-01T06:43:04.739Z,41.49
2023-05-01T06:45:32.151Z,41.56
2023-05-01T06:47:59.314Z,41.45
2023-05-01T06:50:26.547Z,41.54
2023-05-01T06:52:53.731Z,41.51
2023-05-01T06:55:20.890Z,41.34
2023-05-01T06:57:48.011Z,41.42
2023-05-01T07:00:15.938Z,41.32
2023-05-01T07:02:44.953Z,41.40
2023-05-01T07:05:12.373Z,41.34
2023-05-01T07:07:44.577Z,41.32
2023-05-01T07:10:17.584Z,41.10
2023-05-01T07:12:44.825Z,41.26
2023-05-01T07:15:12.315Z,41.25
2023-05-01T07:17:39.542Z,41.30
2023-05-01T07:20:06.996Z,41.03
2023-05-01T07:22:34.176Z,41.28
2023-05-01T07:25:03.022Z,41.03
2023-05-01T07:27:30.218Z,40.97
2023-05-01T07:29:58.449Z,41.03
2023-05-01T07:32:26.065Z,41.07
2023-05-01T07:34:53.245Z,41.00
2023-05-01T07:37:20.386Z,41.30
2023-05-01T07:39:47.594Z,41.45
2023-05-01T07:42:14.860Z,41.26
2023-05-01T07:44:41.984Z,41.37
2023-05-01T07:47:09.154Z,41.45
2023-05-01T07:49:37.569Z,41.32
2023-05-01T07:52:05.614Z,41.24
2023-05-01T07:54:33.030Z,41.30
2023-05-01T07:57:01.748Z,41.52
2023-05-01T07:59:28.891Z,41.59
2023-05-01T08:01:56.292Z,41.81
2023-05-01T08:04:23.600Z,41.66
2023-05-01T08:06:51.477Z,41.54
2023-05-01T08:09:18.818Z,41.80
2023-05-01T08:11:45.959Z,41.49
2023-05-01T08:14:13.218Z,41.59
2023-05-01T08:16:40.470Z,41.78
2023-05-01T08:19:07.716Z,41.77
2023-05-01T08:21:37.436Z,41.63
2023-05-01T08:24:04.895Z,41.59
2023-05-01T08:26:32.262Z,41.72
2023-05-01T08:28:59.409Z,41.71
2023-05-01T08:31:26.953Z,41.69
2023-05-01T08:33:54.112Z,41.70
2023-05-01T08:36:21.532Z,41.47
2023-05-01T08:38:48.882Z,41.48
2023-05-01T08:41:18.247Z,41.58
2023-05-01T08:43:45.413Z,41.49
2023-05-01T08:46:13.194Z,41.59
2023-05-01T08:48:41.304Z,41.40
2023-05-01T08:51:08.728Z,41.44
2023-05-01T08:53:35.918Z,41.38
2023-05-01T08:56:04.172Z,40.98
2023-05-01T08:58:31.896Z,41.21
2023-05-01T09:01:01.128Z,41.27
2023-05-01T09:03:29.535Z,41.12
2023-05-01T09:05:56.846Z,41.22
2023-05-01T09:08:24.016Z,41.16
2023-05-01T09:10:51.496Z,41.19
2023-05-01T09:13:18.641Z,41.09
2023-05-01T09:15:45.937Z,41.22
2023-05-01T09:18:13.368Z,41.09
2023-05-01T09:20:40.663Z,41.28
2023-05-01T09:23:07.879Z,41.34
2023-05-01T09:25:35.207Z,41.18
2023-05-01T09:28:04.323Z,41.03
2023-05-01T09:30:32.170Z,41.35
2023-05-01T09:33:04.144Z,40.35
2023-05-01T09:35:32.906Z,39.80
2023-05-01T09:38:00.191Z,38.70
2023-05-01T09:40:27.581Z,37.61
2023-05-01T09:42:57.423Z,38.22
2023-05-01T09:45:26.491Z,37.13
2023-05-01T09:47:53.994Z,37.17
2023-05-01T09:50:31.070Z,37.17
2023-05-01T09:52:58.238Z,37.39
2023-05-01T09:55:25.974Z,37.50
2023-05-01T09:57:53.314Z,37.48
2023-05-01T10:00:21.987Z,38.06
2023-05-01T10:02:49.872Z,38.69
2023-05-01T10:05:17.565Z,38.87
2023-05-01T10:07:59.989Z,38.97
2023-05-01T10:10:27.615Z,39.15
2023-05-01T10:12:55.033Z,39.28
2023-05-01T10:15:25.468Z,39.54
2023-05-01T10:17:54.761Z,39.56
2023-05-01T10:20:22.216Z,39.35
2023-05-01T10:22:49.943Z,39.28
2023-05-01T10:25:17.163Z,39.61
2023-05-01T10:27:44.530Z,38.33
2023-05-01T10:30:11.780Z,37.73
2023-05-01T10:32:39.129Z,38.17
2023-05-01T10:35:14.496Z,38.33
2023-05-01T10:37:48.442Z,38.24
2023-05-01T10:40:34.220Z,38.62
2023-05-01T10:43:20.959Z,35.52
2023-05-01T10:45:49.144Z,36.63
2023-05-01T10:48:38.299Z,36.07
2023-05-01T10:51:15.512Z,37.06
2023-05-01T10:53:43.929Z,36.67
2023-05-01T10:56:32.513Z,36.58
2023-05-01T10:59:04.609Z,34.86
2023-05-01T11:01:41.210Z,34.22
2023-05-01T11:04:30.066Z,35.07
2023-05-01T11:07:09.329Z,35.50
2023-05-01T11:09:42.546Z,36.57
2023-05-01T11:12:11.929Z,36.69
2023-05-01T11:14:54.809Z,36.68
2023-05-01T11:17:43.474Z,37.09
2023-05-01T11:20:11.410Z,36.94
2023-05-01T11:22:40.880Z,36.99
2023-05-01T11:25:22.026Z,36.66
2023-05-01T11:27:52.330Z,36.99
2023-05-01T11:30:20.274Z,36.22
2023-05-01T11:32:49.329Z,36.69
2023-05-01T11:35:16.676Z,36.66
2023-05-01T11:37:46.852Z,36.85
2023-05-01T11:40:21.653Z,37.33
2023-05-01T11:42:49.434Z,37.33
2023-05-01T11:45:16.801Z,37.38
2023-05-01T11:47:44.487Z,37.58
2023-05-01T11:50:12.716Z,37.41
2023-05-01T11:52:44.818Z,37.65
2023-05-01T11:55:12.118Z,37.75
2023-05-01T11:57:50.289Z,37.61
2023-05-01T12:00:34.088Z,37.58
2023-05-01T12:03:15.863Z,37.30
2023-05-01T12:05:46.613Z,37.17
2023-05-01T12:08:19.330Z,37.53
2023-05-01T12:10:49.529Z,37.32
2023-05-01T12:13:17.096Z,37.51
2023-05-01T12:15:46.456Z,37.68
2023-05-01T12:18:15.700Z,37.49
2023-05-01T12:20:47.899Z,37.48
2023-05-01T12:23:16.463Z,37.73
2023-05-01T12:25:45.061Z,37.71
2023-05-01T12:28:18.163Z,37.66
2023-05-01T12:30:56.492Z,37.80
2023-05-01T12:33:24.423Z,37.84
2023-05-01T12:35:51.865Z,37.96
2023-05-01T12:38:20.973Z,37.90
2023-05-01T12:40:59.470Z,37.77
2023-05-01T12:43:34.196Z,37.40
2023-05-01T12:46:02.323Z,37.44
2023-05-01T12:48:31.287Z,37.63
2023-05-01T12:50:58.596Z,37.62
2023-05-01T12:53:27.159Z,37.46
2023-05-01T12:55:56.316Z,37.84
2023-05-01T12:58:26.355Z,38.00
2023-05-01T13:00:54.842Z,38.28
2023-05-01T13:03:25.367Z,38.36
2023-05-01T13:05:57.719Z,38.50
2023-05-01T13:08:33.603Z,38.71
2023-05-01T13:11:03.906Z,38.62
2023-05-01T13:13:33.448Z,38.69
2023-05-01T13:16:12.154Z,38.61
2023-05-01T13:18:51.115Z,38.61
2023-05-01T13:21:23.214Z,38.69
2023-05-01T13:23:58.798Z,38.57
2023-05-01T13:26:30.405Z,38.72
2023-05-01T13:29:00.215Z,38.63
2023-05-01T13:31:27.817Z,38.77
2023-05-01T13:33:56.195Z,38.80
2023-05-01T13:36:26.648Z,39.02
2023-05-01T13:38:56.815Z,38.98
2023-05-01T13:41:28.368Z,39.08
2023-05-01T13:43:57.310Z,38.91
2023-05-01T13:46:25.052Z,38.99
2023-05-01T13:48:52.797Z,38.55
2023-05-01T13:51:24.741Z,38.60
2023-05-01T13:53:53.707Z,38.30
2023-05-01T13:56:23.938Z,35.40
2023-05-01T13:58:51.430Z,37.19
2023-05-01T14:01:20.840Z,35.91
2023-05-01T14:03:49.076Z,35.66
2023-05-01T14:06:18.605Z,35.39
2023-05-01T14:08:47.707Z,35.38
2023-05-01T14:11:15.119Z,35.51
2023-05-01T14:13:47.094Z,35.26
2023-05-01T14:16:32.340Z,35.47
2023-05-01T14:19:01.985Z,35.56
2023-05-01T14:21:29.943Z,35.53
2023-05-01T14:23:58.138Z,35.72
2023-05-01T14:26:25.577Z,35.83
2023-05-01T14:28:53.118Z,36.14
2023-05-01T14:31:30.236Z,36.28
2023-05-01T14:33:59.617Z,36.22
2023-05-01T14:36:33.995Z,36.57
2023-05-01T14:39:02.418Z,36.71
2023-05-01T14:41:30.161Z,36.46
2023-05-01T14:43:57.717Z,36.48
2023-05-01T14:46:32.881Z,36.50
2023-05-01T14:49:03.386Z,36.37
2023-05-01T14:51:32.278Z,36.32
2023-05-01T14:54:00.171Z,36.43
2023-05-01T14:56:27.573Z,36.49
2023-05-01T14:58:54.824Z,36.55
2023-05-01T15:01:22.171Z,36.89
2023-05-01T15:03:49.706Z,36.96
2023-05-01T15:06:17.416Z,37.20
2023-05-01T15:08:45.571Z,37.37
2023-05-01T15:11:14.277Z,37.49
2023-05-01T15:13:42.759Z,37.79
2023-05-01T15:16:11.011Z,37.76
2023-05-01T15:18:38.693Z,37.80
2023-05-01T15:21:06.051Z,37.65
2023-05-01T15:23:33.361Z,37.76
2023-05-01T15:26:01.477Z,37.76
2023-05-01T15:28:29.004Z,37.75
2023-05-01T15:30:56.313Z,37.48
2023-05-01T15:33:23.681Z,37.57
2023-05-01T15:35:52.716Z,37.39
2023-05-01T15:38:22.945Z,37.47
2023-05-01T15:40:50.381Z,37.40
2023-05-01T15:43:17.718Z,37.29
2023-05-01T15:45:47.329Z,37.56
2023-05-01T15:48:14.731Z,37.78
2023-05-01T15:50:42.024Z,37.78
2023-05-01T15:53:09.294Z,37.48
2023-05-01T15:55:36.883Z,37.44
2023-05-01T15:58:04.067Z,37.46
2023-05-01T16:00:32.747Z,37.39
2023-05-01T16:03:02.438Z,37.44
2023-05-01T16:05:29.745Z,37.38
2023-05-01T16:08:00.960Z,37.44
2023-05-01T16:10:28.538Z,37.46
2023-05-01T16:12:56.129Z,37.47
2023-05-01T16:15:23.323Z,37.46
2023-05-01T16:17:51.904Z,37.48
2023-05-01T16:20:19.439Z,37.59
2023-05-01T16:22:47.165Z,37.52
2023-05-01T16:25:14.729Z,37.82
2023-05-01T16:27:44.259Z,37.73
2023-05-01T16:30:14.337Z,37.62
2023-05-01T16:32:42.044Z,37.65
2023-05-01T16:35:16.678Z,37.79
2023-05-01T16:37:46.815Z,37.92
2023-05-01T16:40:18.003Z,38.18
2023-05-01T16:42:54.959Z,38.01
2023-05-01T16:45:22.421Z,37.83
2023-05-01T16:47:49.747Z,37.86
2023-05-01T16:50:17.341Z,37.37
2023-05-01T16:52:44.559Z,37.32
2023-05-01T16:55:11.946Z,37.11
2023-05-01T16:57:39.168Z,36.68
2023-05-01T17:00:09.353Z,36.12
2023-05-01T17:02:38.223Z,36.59
2023-05-01T17:05:06.161Z,36.73
2023-05-01T17:07:33.718Z,37.05
2023-05-01T17:10:01.110Z,37.44
2023-05-01T17:12:29.273Z,37.70
2023-05-01T17:14:56.863Z,38.33
2023-05-01T17:17:25.009Z,38.06
2023-05-01T17:19:52.704Z,38.21
2023-05-01T17:22:20.027Z,38.13
2023-05-01T17:24:47.649Z,38.17
2023-05-01T17:27:15.530Z,38.62
2023-05-01T17:29:43.812Z,38.89
2023-05-01T17:32:11.281Z,39.03
2023-05-01T17:34:38.500Z,39.38
2023-05-01T17:37:06.921Z,39.74
2023-05-01T17:39:34.396Z,39.75
2023-05-01T17:42:02.548Z,39.41
2023-05-01T17:44:29.961Z,39.31
2023-05-01T17:46:57.181Z,39.27
2023-05-01T17:49:24.784Z,38.80
2023-05-01T17:51:51.993Z,38.83
2023-05-01T17:54:19.522Z,38.84
2023-05-01T17:56:46.721Z,38.98
2023-05-01T17:59:13.984Z,39.01
2023-05-01T18:01:41.705Z,38.83
2023-05-01T18:04:09.512Z,38.94
2023-05-01T18:06:37.075Z,39.05
2023-05-01T18:09:04.521Z,38.96
2023-05-01T18:11:31.684Z,39.05
2023-05-01T18:13:59.224Z,39.01
2023-05-01T18:16:26.519Z,39.07
2023-05-01T18:18:54.014Z,38.91
2023-05-01T18:21:21.247Z,38.47
2023-05-01T18:23:48.962Z,38.52
2023-05-01T18:26:16.667Z,38.31
2023-05-01T18:28:44.122Z,38.22
2023-05-01T18:31:11.631Z,38.00
2023-05-01T18:33:39.302Z,38.14
2023-05-01T18:36:06.541Z,38.17
2023-05-01T18:38:33.728Z,37.99
2023-05-01T18:41:01.203Z,38.18
2023-05-01T18:43:28.647Z,38.19
2023-05-01T18:45:55.941Z,38.13
2023-05-01T18:48:23.250Z,37.85
2023-05-01T18:51:04.668Z,37.82
2023-05-01T18:53:34.738Z,37.67
2023-05-01T18:56:02.073Z,37.80
2023-05-01T18:58:30.224Z,37.95
2023-05-01T19:00:59.972Z,37.91
2023-05-01T19:03:27.203Z,37.93
2023-05-01T19:05:54.359Z,38.00
2023-05-01T19:08:21.566Z,38.16
2023-05-01T19:10:48.742Z,38.27
2023-05-01T19:13:16.410Z,38.26
2023-05-01T19:15:46.765Z,38.51
2023-05-01T19:18:16.074Z,38.61
2023-05-01T19:20:43.551Z,38.72
2023-05-01T19:23:10.777Z,38.75
2023-05-01T19:25:38.241Z,39.02
2023-05-01T19:28:05.538Z,39.13
2023-05-01T19:30:32.789Z,39.18
2023-05-01T19:33:00.268Z,39.44
2023-05-01T19:35:27.543Z,39.44
2023-05-01T19:37:58.499Z,39.28
2023-05-01T19:40:26.090Z,39.14
2023-05-01T19:42:53.397Z,39.29
2023-05-01T19:45:21.046Z,39.33
2023-05-01T19:47:48.243Z,39.32
2023-05-01T19:50:18.956Z,39.38
2023-05-01T19:52:46.145Z,39.38
2023-05-01T19:55:14.765Z,39.30
2023-05-01T19:57:42.344Z,39.45
2023-05-01T20:00:12.219Z,39.32
2023-05-01T20:02:39.912Z,39.32
2023-05-01T20:05:07.341Z,39.44
2023-05-01T20:07:34.952Z,39.45
2023-05-01T20:10:02.404Z,39.42
2023-05-01T20:12:29.699Z,39.54
2023-05-01T20:14:58.789Z,39.52
2023-05-01T20:17:26.320Z,39.61
2023-05-01T20:19:53.747Z,39.44
2023-05-01T20:22:21.178Z,39.50
2023-05-01T20:24:48.328Z,39.51
2023-05-01T20:27:15.789Z,39.40
2023-05-01T20:29:43.025Z,39.65
2023-05-01T20:32:10.275Z,39.56
2023-05-01T20:34:37.495Z,39.74
2023-05-01T20:37:04.696Z,39.67
2023-05-01T20:39:31.894Z,39.73
2023-05-01T20:41:59.367Z,39.83
2023-05-01T20:44:26.933Z,39.67
2023-05-01T20:46:54.197Z,39.77
2023-05-01T20:49:21.532Z,39.77
2023-05-01T20:51:48.994Z,39.92
2023-05-01T20:54:16.219Z,39.71
2023-05-01T20:56:43.422Z,39.84
2023-05-01T20:59:10.689Z,40.11
2023-05-01T21:01:38.193Z,39.84
2023-05-01T21:04:06.532Z,39.98
2023-05-01T21:06:34.030Z,39.88
2023-05-01T21:09:03.195Z,40.08
2023-05-01T21:11:30.403Z,40.03
2023-05-01T21:13:58.352Z,39.97
2023-05-01T21:16:27.583Z,40.04
2023-05-01T21:18:54.943Z,40.26
2023-05-01T21:21:22.150Z,40.02
2023-05-01T21:23:49.455Z,40.18
2023-05-01T21:26:16.898Z,40.13
2023-05-01T21:28:44.111Z,40.12
2023-05-01T21:31:15.074Z,40.24
2023-05-01T21:33:45.620Z,40.54
2023-05-01T21:36:13.985Z,40.41
2023-05-01T21:38:41.249Z,40.45
2023-05-01T21:41:09.470Z,40.30
2023-05-01T21:43:36.662Z,40.35
2023-05-01T21:46:03.845Z,40.30
2023-05-01T21:48:33.599Z,40.35
2023-05-01T21:51:00.893Z,40.30
2023-05-01T21:53:29.875Z,40.18
2023-05-01T21:55:57.014Z,40.25
2023-05-01T21:58:25.136Z,40.36
2023-05-01T22:00:52.458Z,40.16
2023-05-01T22:03:20.119Z,40.28
2023-05-01T22:05:47.474Z,40.21
2023-05-01T22:08:14.663Z,40.43
2023-05-01T22:10:42.925Z,40.24
2023-05-01T22:13:11.426Z,40.37
2023-05-01T22:15:38.606Z,40.42
2023-05-01T22:18:05.864Z,40.25
2023-05-01T22:20:33.069Z,40.27
2023-05-01T22:23:00.946Z,40.26
2023-05-01T22:25:28.647Z,40.26
2023-05-01T22:27:55.809Z,40.26
2023-05-01T22:30:22.985Z,40.38
2023-05-01T22:32:50.254Z,40.16
2023-05-01T22:35:17.550Z,40.31
2023-05-01T22:37:44.706Z,40.45
2023-05-01T22:40:12.060Z,40.32
2023-05-01T22:42:39.227Z,40.20
2023-05-01T22:45:07.073Z,40.13
2023-05-01T22:47:34.390Z,40.23
2023-05-01T22:50:02.312Z,40.35
2023-05-01T22:52:29.810Z,40.27
2023-05-01T22:54:57.006Z,40.25
2023-05-01T22:57:24.191Z,40.26
2023-05-01T22:59:51.374Z,40.35
2023-05-01T23:02:18.915Z,40.20
2023-05-01T23:04:46.197Z,40.35
2023-05-01T23:07:16.531Z,40.15
2023-05-01T23:09:43.923Z,40.20
2023-05-01T23:12:22.766Z,40.04
2023-05-01T23:14:49.939Z,40.21
2023-05-01T23:17:17.381Z,40.15
2023-05-01T23:19:46.352Z,40.16
2023-05-01T23:22:13.806Z,40.29
2023-05-01T23:24:48.706Z,40.33
2023-05-01T23:27:18.527Z,40.18
2023-05-01T23:30:05.957Z,40.18
2023-05-01T23:32:34.156Z,40.25
2023-05-01T23:35:14.554Z,40.31
2023-05-01T23:37:41.932Z,40.36
2023-05-01T23:40:10.437Z,40.17
2023-05-01T23:42:38.729Z,40.27
2023-05-01T23:45:07.643Z,40.34
2023-05-01T23:47:34.947Z,40.34
2023-05-01T23:50:03.715Z,40.16
2023-05-01T23:52:30.980Z,40.37
2023-05-01T23:54:58.164Z,40.26
2023-05-01T23:57:25.316Z,40.17
2023-05-01T23:59:52.815Z,40.11
